sensor_id;sensor_type;location;lat;lon;timestamp;temperature;humidity
9975;DHT22;5028;50.974;4.968;2023-09-12T00:00:10;20.10;99.90
9975;DHT22;5028;50.974;4.968;2023-09-12T00:02:39;20.10;99.90
9975;DHT22;5028;50.974;4.968;2023-09-12T00:05:07;20.10;99.90
9975;DHT22;5028;50.974;4.968;2023-09-12T00:07:38;20.10;99.90
9975;DHT22;5028;50.974;4.968;2023-09-12T00:10:08;20.10;99.90
9975;DHT22;5028;50.974;4.968;2023-09-12T00:12:36;20.00;99.90
9975;DHT22;5028;50.974;4.968;2023-09-12T00:15:05;19.90;99.90
9975;DHT22;5028;50.974;4.968;2023-09-12T00:17:36;19.90;99.90
9975;DHT22;5028;50.974;4.968;2023-09-12T00:20:05;19.90;99.90
9975;DHT22;5028;50.974;4.968;2023-09-12T00:22:35;19.90;99.90
9975;DHT22;5028;50.974;4.968;2023-09-12T00:25:04;19.80;99.90
9975;DHT22;5028;50.974;4.968;2023-09-12T00:27:33;19.80;99.90
9975;DHT22;5028;50.974;4.968;2023-09-12T00:30:03;19.80;99.90
9975;DHT22;5028;50.974;4.968;2023-09-12T00:32:31;19.80;99.90
9975;DHT22;5028;50.974;4.968;2023-09-12T00:35:01;19.70;99.90
9975;DHT22;5028;50.974;4.968;2023-09-12T00:37:30;19.70;99.90
9975;DHT22;5028;50.974;4.968;2023-09-12T00:39:59;19.70;99.90
9975;DHT22;5028;50.974;4.968;2023-09-12T00:42:28;19.70;99.90
9975;DHT22;5028;50.974;4.968;2023-09-12T00:44:56;19.70;99.90
9975;DHT22;5028;50.974;4.968;2023-09-12T00:47:25;19.70;99.90
9975;DHT22;5028;50.974;4.968;2023-09-12T00:49:55;19.60;99.90
9975;DHT22;5028;50.974;4.968;2023-09-12T00:52:27;19.60;99.90
9975;DHT22;5028;50.974;4.968;2023-09-12T00:54:56;19.50;99.90
9975;DHT22;5028;50.974;4.968;2023-09-12T00:57:26;19.50;99.90
9975;DHT22;5028;50.974;4.968;2023-09-12T00:59:55;19.40;99.90
9975;DHT22;5028;50.974;4.968;2023-09-12T01:02:25;19.40;99.90
9975;DHT22;5028;50.974;4.968;2023-09-12T01:04:53;19.50;99.90
9975;DHT22;5028;50.974;4.968;2023-09-12T01:07:22;19.40;99.90
9975;DHT22;5028;50.974;4.968;2023-09-12T01:09:52;19.40;99.90
9975;DHT22;5028;50.974;4.968;2023-09-12T01:12:21;19.40;99.90
9975;DHT22;5028;50.974;4.968;2023-09-12T01:14:50;19.40;99.90
9975;DHT22;5028;50.974;4.968;2023-09-12T01:17:18;19.40;99.90
9975;DHT22;5028;50.974;4.968;2023-09-12T01:19:47;19.30;99.90
9975;DHT22;5028;50.974;4.968;2023-09-12T01:22:36;19.30;99.90
9975;DHT22;5028;50.974;4.968;2023-09-12T01:25:34;19.30;99.90
9975;DHT22;5028;50.974;4.968;2023-09-12T01:28:12;19.30;99.90
9975;DHT22;5028;50.974;4.968;2023-09-12T01:30:42;19.30;99.90
9975;DHT22;5028;50.974;4.968;2023-09-12T01:33:13;19.20;99.90
9975;DHT22;5028;50.974;4.968;2023-09-12T01:35:42;19.20;99.90
9975;DHT22;5028;50.974;4.968;2023-09-12T01:38:15;19.20;99.90
9975;DHT22;5028;50.974;4.968;2023-09-12T01:40:46;19.20;99.90
9975;DHT22;5028;50.974;4.968;2023-09-12T01:43:18;19.20;99.90
9975;DHT22;5028;50.974;4.968;2023-09-12T01:45:49;19.20;99.90
9975;DHT22;5028;50.974;4.968;2023-09-12T01:48:25;19.20;99.90
9975;DHT22;5028;50.974;4.968;2023-09-12T01:50:54;19.20;99.90
9975;DHT22;5028;50.974;4.968;2023-09-12T01:53:23;19.10;99.90
9975;DHT22;5028;50.974;4.968;2023-09-12T01:55:52;19.10;99.90
9975;DHT22;5028;50.974;4.968;2023-09-12T01:58:22;19.10;99.90
9975;DHT22;5028;50.974;4.968;2023-09-12T02:00:51;19.10;99.90
9975;DHT22;5028;50.974;4.968;2023-09-12T02:03:20;19.00;99.90
9975;DHT22;5028;50.974;4.968;2023-09-12T02:05:49;19.00;99.90
9975;DHT22;5028;50.974;4.968;2023-09-12T02:08:18;19.00;99.90
9975;DHT22;5028;50.974;4.968;2023-09-12T02:10:46;19.00;99.90
9975;DHT22;5028;50.974;4.968;2023-09-12T02:13:14;18.90;99.90
9975;DHT22;5028;50.974;4.968;2023-09-12T02:15:44;19.00;99.90
9975;DHT22;5028;50.974;4.968;2023-09-12T02:18:13;19.00;99.90
9975;DHT22;5028;50.974;4.968;2023-09-12T02:20:42;19.00;99.90
9975;DHT22;5028;50.974;4.968;2023-09-12T02:23:13;18.90;99.90
9975;DHT22;5028;50.974;4.968;2023-09-12T02:25:41;18.90;99.90
9975;DHT22;5028;50.974;4.968;2023-09-12T02:28:10;18.90;99.90
9975;DHT22;5028;50.974;4.968;2023-09-12T02:30:38;18.90;99.90
9975;DHT22;5028;50.974;4.968;2023-09-12T02:33:09;18.80;99.90
9975;DHT22;5028;50.974;4.968;2023-09-12T02:35:38;18.80;99.90
9975;DHT22;5028;50.974;4.968;2023-09-12T02:38:07;18.80;99.90
9975;DHT22;5028;50.974;4.968;2023-09-12T02:40:36;18.80;99.90
9975;DHT22;5028;50.974;4.968;2023-09-12T02:43:04;18.80;99.90
9975;DHT22;5028;50.974;4.968;2023-09-12T02:45:32;18.70;99.90
9975;DHT22;5028;50.974;4.968;2023-09-12T02:48:01;18.60;99.90
9975;DHT22;5028;50.974;4.968;2023-09-12T02:50:31;18.60;99.90
9975;DHT22;5028;50.974;4.968;2023-09-12T02:53:00;18.50;99.90
9975;DHT22;5028;50.974;4.968;2023-09-12T02:55:29;18.60;99.90
9975;DHT22;5028;50.974;4.968;2023-09-12T02:57:59;18.60;99.90
9975;DHT22;5028;50.974;4.968;2023-09-12T03:00:27;18.60;99.90
9975;DHT22;5028;50.974;4.968;2023-09-12T03:02:55;18.70;99.90
9975;DHT22;5028;50.974;4.968;2023-09-12T03:05:24;18.60;99.90
9975;DHT22;5028;50.974;4.968;2023-09-12T03:07:54;18.70;99.90
9975;DHT22;5028;50.974;4.968;2023-09-12T03:10:23;18.60;99.90
9975;DHT22;5028;50.974;4.968;2023-09-12T03:12:51;18.60;99.90
9975;DHT22;5028;50.974;4.968;2023-09-12T03:15:20;18.60;99.90
9975;DHT22;5028;50.974;4.968;2023-09-12T03:17:49;18.60;99.90
9975;DHT22;5028;50.974;4.968;2023-09-12T03:20:18;18.60;99.90
9975;DHT22;5028;50.974;4.968;2023-09-12T03:22:47;18.60;99.90
9975;DHT22;5028;50.974;4.968;2023-09-12T03:25:17;18.60;99.90
9975;DHT22;5028;50.974;4.968;2023-09-12T03:27:45;18.60;99.90
9975;DHT22;5028;50.974;4.968;2023-09-12T03:30:14;18.60;99.90
9975;DHT22;5028;50.974;4.968;2023-09-12T03:32:42;18.70;99.90
9975;DHT22;5028;50.974;4.968;2023-09-12T03:35:11;18.60;99.90
9975;DHT22;5028;50.974;4.968;2023-09-12T03:37:39;18.60;99.90
9975;DHT22;5028;50.974;4.968;2023-09-12T03:40:10;18.60;99.90
9975;DHT22;5028;50.974;4.968;2023-09-12T03:42:41;18.60;99.90
9975;DHT22;5028;50.974;4.968;2023-09-12T03:45:10;18.70;99.90
9975;DHT22;5028;50.974;4.968;2023-09-12T03:47:39;18.70;99.90
9975;DHT22;5028;50.974;4.968;2023-09-12T03:50:08;18.60;99.90
9975;DHT22;5028;50.974;4.968;2023-09-12T03:52:36;18.60;99.90
9975;DHT22;5028;50.974;4.968;2023-09-12T03:55:05;18.70;99.90
9975;DHT22;5028;50.974;4.968;2023-09-12T03:57:34;18.70;99.90
9975;DHT22;5028;50.974;4.968;2023-09-12T04:00:06;18.70;99.90
9975;DHT22;5028;50.974;4.968;2023-09-12T04:02:36;18.70;99.90
9975;DHT22;5028;50.974;4.968;2023-09-12T04:05:05;18.70;99.90
9975;DHT22;5028;50.974;4.968;2023-09-12T04:07:34;18.70;99.90
9975;DHT22;5028;50.974;4.968;2023-09-12T04:10:03;18.70;99.90
9975;DHT22;5028;50.974;4.968;2023-09-12T04:12:32;18.70;99.90
9975;DHT22;5028;50.974;4.968;2023-09-12T04:15:01;18.70;99.90
9975;DHT22;5028;50.974;4.968;2023-09-12T04:17:31;18.80;99.90
9975;DHT22;5028;50.974;4.968;2023-09-12T04:20:00;18.80;99.90
9975;DHT22;5028;50.974;4.968;2023-09-12T04:22:28;18.80;99.90
9975;DHT22;5028;50.974;4.968;2023-09-12T04:24:57;18.80;99.90
9975;DHT22;5028;50.974;4.968;2023-09-12T04:27:25;18.80;99.90
9975;DHT22;5028;50.974;4.968;2023-09-12T04:29:54;18.70;99.90
9975;DHT22;5028;50.974;4.968;2023-09-12T04:32:23;18.60;99.90
9975;DHT22;5028;50.974;4.968;2023-09-12T04:34:53;18.60;99.90
9975;DHT22;5028;50.974;4.968;2023-09-12T04:37:21;18.60;99.90
9975;DHT22;5028;50.974;4.968;2023-09-12T04:39:50;18.60;99.90
9975;DHT22;5028;50.974;4.968;2023-09-12T04:42:19;18.70;99.90
9975;DHT22;5028;50.974;4.968;2023-09-12T04:44:48;18.70;99.90
9975;DHT22;5028;50.974;4.968;2023-09-12T04:47:17;18.70;99.90
9975;DHT22;5028;50.974;4.968;2023-09-12T04:49:46;18.60;99.90
9975;DHT22;5028;50.974;4.968;2023-09-12T04:52:16;18.70;99.90
9975;DHT22;5028;50.974;4.968;2023-09-12T04:54:44;18.60;99.90
9975;DHT22;5028;50.974;4.968;2023-09-12T04:57:13;18.60;99.90
9975;DHT22;5028;50.974;4.968;2023-09-12T04:59:41;18.60;99.90
9975;DHT22;5028;50.974;4.968;2023-09-12T05:02:10;18.60;99.90
9975;DHT22;5028;50.974;4.968;2023-09-12T05:04:40;18.60;99.90
9975;DHT22;5028;50.974;4.968;2023-09-12T05:07:08;18.60;99.90
9975;DHT22;5028;50.974;4.968;2023-09-12T05:09:38;18.70;99.90
9975;DHT22;5028;50.974;4.968;2023-09-12T05:12:07;18.70;99.90
9975;DHT22;5028;50.974;4.968;2023-09-12T05:14:35;18.70;99.90
9975;DHT22;5028;50.974;4.968;2023-09-12T05:17:04;18.70;99.90
9975;DHT22;5028;50.974;4.968;2023-09-12T05:19:32;18.60;99.90
9975;DHT22;5028;50.974;4.968;2023-09-12T05:22:01;18.60;99.90
9975;DHT22;5028;50.974;4.968;2023-09-12T05:24:30;18.60;99.90
9975;DHT22;5028;50.974;4.968;2023-09-12T05:27:00;18.60;99.90
9975;DHT22;5028;50.974;4.968;2023-09-12T05:29:32;18.60;99.90
9975;DHT22;5028;50.974;4.968;2023-09-12T05:32:01;18.70;99.90
9975;DHT22;5028;50.974;4.968;2023-09-12T05:34:30;18.70;99.90
9975;DHT22;5028;50.974;4.968;2023-09-12T05:36:59;18.70;99.90
9975;DHT22;5028;50.974;4.968;2023-09-12T05:39:27;18.80;99.90
9975;DHT22;5028;50.974;4.968;2023-09-12T05:41:55;18.70;99.90
9975;DHT22;5028;50.974;4.968;2023-09-12T05:44:25;18.80;99.90
9975;DHT22;5028;50.974;4.968;2023-09-12T05:46:54;18.80;99.90
9975;DHT22;5028;50.974;4.968;2023-09-12T05:49:23;18.80;99.90
9975;DHT22;5028;50.974;4.968;2023-09-12T05:51:51;18.80;99.90
9975;DHT22;5028;50.974;4.968;2023-09-12T05:54:20;18.80;99.90
9975;DHT22;5028;50.974;4.968;2023-09-12T05:56:48;18.80;99.90
9975;DHT22;5028;50.974;4.968;2023-09-12T05:59:17;18.80;99.90
9975;DHT22;5028;50.974;4.968;2023-09-12T06:01:47;18.70;99.90
9975;DHT22;5028;50.974;4.968;2023-09-12T06:04:15;18.70;99.90
9975;DHT22;5028;50.974;4.968;2023-09-12T06:06:46;18.60;99.90
9975;DHT22;5028;50.974;4.968;2023-09-12T06:09:15;18.70;99.90
9975;DHT22;5028;50.974;4.968;2023-09-12T06:11:44;18.80;99.90
9975;DHT22;5028;50.974;4.968;2023-09-12T06:14:12;18.80;99.90
9975;DHT22;5028;50.974;4.968;2023-09-12T06:16:40;18.80;99.90
9975;DHT22;5028;50.974;4.968;2023-09-12T06:19:10;18.80;99.90
9975;DHT22;5028;50.974;4.968;2023-09-12T06:21:44;18.80;99.90
9975;DHT22;5028;50.974;4.968;2023-09-12T06:24:17;18.90;99.90
9975;DHT22;5028;50.974;4.968;2023-09-12T06:26:45;18.90;99.90
9975;DHT22;5028;50.974;4.968;2023-09-12T06:29:14;18.90;99.90
9975;DHT22;5028;50.974;4.968;2023-09-12T06:31:43;18.90;99.90
9975;DHT22;5028;50.974;4.968;2023-09-12T06:34:13;18.80;99.90
9975;DHT22;5028;50.974;4.968;2023-09-12T06:36:42;18.90;99.90
9975;DHT22;5028;50.974;4.968;2023-09-12T06:39:12;18.90;99.90
9975;DHT22;5028;50.974;4.968;2023-09-12T06:41:40;18.90;99.90
9975;DHT22;5028;50.974;4.968;2023-09-12T06:44:09;18.90;99.90
9975;DHT22;5028;50.974;4.968;2023-09-12T06:46:38;18.90;99.90
9975;DHT22;5028;50.974;4.968;2023-09-12T06:49:06;18.90;99.90
9975;DHT22;5028;50.974;4.968;2023-09-12T06:51:36;18.90;99.90
9975;DHT22;5028;50.974;4.968;2023-09-12T06:54:05;18.90;99.90
9975;DHT22;5028;50.974;4.968;2023-09-12T06:56:33;18.90;99.90
9975;DHT22;5028;50.974;4.968;2023-09-12T06:59:05;19.00;99.90
9975;DHT22;5028;50.974;4.968;2023-09-12T07:01:35;19.00;99.90
9975;DHT22;5028;50.974;4.968;2023-09-12T07:04:04;19.10;99.90
9975;DHT22;5028;50.974;4.968;2023-09-12T07:06:33;19.10;99.90
9975;DHT22;5028;50.974;4.968;2023-09-12T07:09:03;19.10;99.90
9975;DHT22;5028;50.974;4.968;2023-09-12T07:11:32;19.10;99.90
9975;DHT22;5028;50.974;4.968;2023-09-12T07:14:01;19.20;99.90
9975;DHT22;5028;50.974;4.968;2023-09-12T07:16:31;19.30;99.90
9975;DHT22;5028;50.974;4.968;2023-09-12T07:19:01;19.30;99.90
9975;DHT22;5028;50.974;4.968;2023-09-12T07:21:31;19.40;99.90
9975;DHT22;5028;50.974;4.968;2023-09-12T07:24:00;19.40;99.90
9975;DHT22;5028;50.974;4.968;2023-09-12T07:26:30;19.40;99.90
9975;DHT22;5028;50.974;4.968;2023-09-12T07:28:59;19.50;99.90
9975;DHT22;5028;50.974;4.968;2023-09-12T07:31:32;19.60;99.90
9975;DHT22;5028;50.974;4.968;2023-09-12T07:34:02;19.60;99.90
9975;DHT22;5028;50.974;4.968;2023-09-12T07:36:34;19.70;99.90
9975;DHT22;5028;50.974;4.968;2023-09-12T07:39:05;19.80;99.90
9975;DHT22;5028;50.974;4.968;2023-09-12T07:41:35;19.90;99.90
9975;DHT22;5028;50.974;4.968;2023-09-12T07:44:04;20.10;99.90
9975;DHT22;5028;50.974;4.968;2023-09-12T07:46:36;20.20;99.90
9975;DHT22;5028;50.974;4.968;2023-09-12T07:49:05;20.30;99.90
9975;DHT22;5028;50.974;4.968;2023-09-12T07:51:36;20.40;99.90
9975;DHT22;5028;50.974;4.968;2023-09-12T07:54:05;20.50;99.90
9975;DHT22;5028;50.974;4.968;2023-09-12T07:56:38;20.60;99.90
9975;DHT22;5028;50.974;4.968;2023-09-12T07:59:07;20.80;99.90
9975;DHT22;5028;50.974;4.968;2023-09-12T08:01:37;20.90;99.90
9975;DHT22;5028;50.974;4.968;2023-09-12T08:04:05;20.90;99.90
9975;DHT22;5028;50.974;4.968;2023-09-12T08:06:35;20.90;99.90
9975;DHT22;5028;50.974;4.968;2023-09-12T08:09:21;20.90;99.90
9975;DHT22;5028;50.974;4.968;2023-09-12T08:11:52;20.90;99.90
9975;DHT22;5028;50.974;4.968;2023-09-12T08:14:20;21.00;99.90
9975;DHT22;5028;50.974;4.968;2023-09-12T08:16:49;21.00;99.90
9975;DHT22;5028;50.974;4.968;2023-09-12T08:19:17;21.00;99.90
9975;DHT22;5028;50.974;4.968;2023-09-12T08:21:46;21.10;99.90
9975;DHT22;5028;50.974;4.968;2023-09-12T08:24:16;21.20;99.90
9975;DHT22;5028;50.974;4.968;2023-09-12T08:26:44;21.40;99.90
9975;DHT22;5028;50.974;4.968;2023-09-12T08:29:14;21.40;99.90
9975;DHT22;5028;50.974;4.968;2023-09-12T08:31:44;21.50;99.90
9975;DHT22;5028;50.974;4.968;2023-09-12T08:34:14;21.50;99.90
9975;DHT22;5028;50.974;4.968;2023-09-12T08:36:43;21.40;99.90
9975;DHT22;5028;50.974;4.968;2023-09-12T08:39:12;21.40;99.90
9975;DHT22;5028;50.974;4.968;2023-09-12T08:41:41;21.40;99.90
9975;DHT22;5028;50.974;4.968;2023-09-12T08:44:10;21.50;99.90
9975;DHT22;5028;50.974;4.968;2023-09-12T08:46:42;21.60;99.90
9975;DHT22;5028;50.974;4.968;2023-09-12T08:49:10;21.70;99.90
9975;DHT22;5028;50.974;4.968;2023-09-12T08:51:40;21.70;99.90
9975;DHT22;5028;50.974;4.968;2023-09-12T08:54:09;21.70;99.90
9975;DHT22;5028;50.974;4.968;2023-09-12T08:56:40;21.80;99.90
9975;DHT22;5028;50.974;4.968;2023-09-12T08:59:10;21.90;99.90
9975;DHT22;5028;50.974;4.968;2023-09-12T09:01:43;22.10;99.90
9975;DHT22;5028;50.974;4.968;2023-09-12T09:04:14;22.40;99.90
9975;DHT22;5028;50.974;4.968;2023-09-12T09:06:43;22.50;99.90
9975;DHT22;5028;50.974;4.968;2023-09-12T09:09:15;22.40;99.90
9975;DHT22;5028;50.974;4.968;2023-09-12T09:11:44;22.30;99.90
9975;DHT22;5028;50.974;4.968;2023-09-12T09:14:12;22.30;99.90
9975;DHT22;5028;50.974;4.968;2023-09-12T09:16:42;22.30;99.90
9975;DHT22;5028;50.974;4.968;2023-09-12T09:19:11;22.40;99.90
9975;DHT22;5028;50.974;4.968;2023-09-12T09:21:40;22.40;99.90
9975;DHT22;5028;50.974;4.968;2023-09-12T09:24:13;22.60;99.90
9975;DHT22;5028;50.974;4.968;2023-09-12T09:26:45;22.80;99.90
9975;DHT22;5028;50.974;4.968;2023-09-12T09:29:16;22.90;99.90
9975;DHT22;5028;50.974;4.968;2023-09-12T09:31:48;23.10;99.90
9975;DHT22;5028;50.974;4.968;2023-09-12T09:34:18;23.20;99.90
9975;DHT22;5028;50.974;4.968;2023-09-12T09:36:48;23.50;99.90
9975;DHT22;5028;50.974;4.968;2023-09-12T09:39:19;23.80;99.90
9975;DHT22;5028;50.974;4.968;2023-09-12T09:41:48;24.10;99.90
9975;DHT22;5028;50.974;4.968;2023-09-12T09:44:17;24.30;99.90
9975;DHT22;5028;50.974;4.968;2023-09-12T09:46:50;24.50;99.90
9975;DHT22;5028;50.974;4.968;2023-09-12T09:49:20;24.80;99.90
9975;DHT22;5028;50.974;4.968;2023-09-12T09:51:49;25.10;99.90
9975;DHT22;5028;50.974;4.968;2023-09-12T09:54:18;25.50;99.90
9975;DHT22;5028;50.974;4.968;2023-09-12T09:56:47;25.70;99.90
9975;DHT22;5028;50.974;4.968;2023-09-12T09:59:19;26.00;99.90
9975;DHT22;5028;50.974;4.968;2023-09-12T10:01:53;26.40;99.90
9975;DHT22;5028;50.974;4.968;2023-09-12T10:04:24;26.50;99.90
9975;DHT22;5028;50.974;4.968;2023-09-12T10:06:56;26.60;99.90
9975;DHT22;5028;50.974;4.968;2023-09-12T10:09:27;26.80;99.90
9975;DHT22;5028;50.974;4.968;2023-09-12T10:11:55;27.00;99.90
9975;DHT22;5028;50.974;4.968;2023-09-12T10:14:27;27.20;99.90
9975;DHT22;5028;50.974;4.968;2023-09-12T10:17:01;26.60;99.90
9975;DHT22;5028;50.974;4.968;2023-09-12T10:19:38;25.90;99.90
9975;DHT22;5028;50.974;4.968;2023-09-12T10:22:12;25.70;99.90
9975;DHT22;5028;50.974;4.968;2023-09-12T10:24:44;26.00;99.90
9975;DHT22;5028;50.974;4.968;2023-09-12T10:27:14;26.30;99.90
9975;DHT22;5028;50.974;4.968;2023-09-12T10:29:43;26.50;99.90
9975;DHT22;5028;50.974;4.968;2023-09-12T10:32:17;26.80;99.90
9975;DHT22;5028;50.974;4.968;2023-09-12T10:34:48;27.20;99.90
9975;DHT22;5028;50.974;4.968;2023-09-12T10:37:19;27.00;99.90
9975;DHT22;5028;50.974;4.968;2023-09-12T10:39:50;26.50;99.90
9975;DHT22;5028;50.974;4.968;2023-09-12T10:42:22;26.20;99.90
9975;DHT22;5028;50.974;4.968;2023-09-12T10:44:54;25.70;99.90
9975;DHT22;5028;50.974;4.968;2023-09-12T10:47:25;25.60;99.90
9975;DHT22;5028;50.974;4.968;2023-09-12T10:49:54;25.90;99.90
9975;DHT22;5028;50.974;4.968;2023-09-12T10:52:24;26.50;99.90
9975;DHT22;5028;50.974;4.968;2023-09-12T10:54:53;27.20;99.90
9975;DHT22;5028;50.974;4.968;2023-09-12T10:57:22;27.80;99.90
9975;DHT22;5028;50.974;4.968;2023-09-12T11:00:11;28.30;99.90
9975;DHT22;5028;50.974;4.968;2023-09-12T11:02:41;28.40;99.90
9975;DHT22;5028;50.974;4.968;2023-09-12T11:05:35;28.60;99.90
9975;DHT22;5028;50.974;4.968;2023-09-12T11:08:04;28.50;99.90
9975;DHT22;5028;50.974;4.968;2023-09-12T11:10:32;28.20;99.90
9975;DHT22;5028;50.974;4.968;2023-09-12T11:13:01;28.50;99.90
9975;DHT22;5028;50.974;4.968;2023-09-12T11:15:30;28.60;99.90
9975;DHT22;5028;50.974;4.968;2023-09-12T11:18:04;28.40;99.90
9975;DHT22;5028;50.974;4.968;2023-09-12T11:20:50;28.00;99.90
9975;DHT22;5028;50.974;4.968;2023-09-12T11:23:20;27.60;99.90
9975;DHT22;5028;50.974;4.968;2023-09-12T11:25:54;26.90;99.90
9975;DHT22;5028;50.974;4.968;2023-09-12T11:28:31;26.40;99.90
9975;DHT22;5028;50.974;4.968;2023-09-12T11:31:00;26.40;99.90
9975;DHT22;5028;50.974;4.968;2023-09-12T11:33:32;27.00;99.90
9975;DHT22;5028;50.974;4.968;2023-09-12T11:36:01;27.30;99.90
9975;DHT22;5028;50.974;4.968;2023-09-12T11:38:32;27.80;99.90
9975;DHT22;5028;50.974;4.968;2023-09-12T11:41:01;28.20;99.90
9975;DHT22;5028;50.974;4.968;2023-09-12T11:43:29;28.40;99.90
9975;DHT22;5028;50.974;4.968;2023-09-12T11:46:02;28.50;99.90
9975;DHT22;5028;50.974;4.968;2023-09-12T11:48:32;28.90;99.90
9975;DHT22;5028;50.974;4.968;2023-09-12T11:51:01;29.30;99.90
9975;DHT22;5028;50.974;4.968;2023-09-12T11:53:35;29.60;99.90
9975;DHT22;5028;50.974;4.968;2023-09-12T11:56:03;29.90;99.90
9975;DHT22;5028;50.974;4.968;2023-09-12T11:58:32;30.20;99.90
9975;DHT22;5028;50.974;4.968;2023-09-12T12:01:02;30.40;99.90
9975;DHT22;5028;50.974;4.968;2023-09-12T12:03:33;30.50;99.90
9975;DHT22;5028;50.974;4.968;2023-09-12T12:06:01;30.70;99.90
9975;DHT22;5028;50.974;4.968;2023-09-12T12:08:31;30.80;99.90
9975;DHT22;5028;50.974;4.968;2023-09-12T12:11:00;30.70;99.90
9975;DHT22;5028;50.974;4.968;2023-09-12T12:13:29;30.40;99.90
9975;DHT22;5028;50.974;4.968;2023-09-12T12:15:58;30.30;99.90
9975;DHT22;5028;50.974;4.968;2023-09-12T12:18:27;30.60;99.90
9975;DHT22;5028;50.974;4.968;2023-09-12T12:20:57;29.90;99.90
9975;DHT22;5028;50.974;4.968;2023-09-12T12:23:26;29.80;99.90
9975;DHT22;5028;50.974;4.968;2023-09-12T12:25:54;30.10;99.90
9975;DHT22;5028;50.974;4.968;2023-09-12T12:28:23;30.00;99.90
9975;DHT22;5028;50.974;4.968;2023-09-12T12:30:53;29.00;99.90
9975;DHT22;5028;50.974;4.968;2023-09-12T12:33:22;28.80;99.90
9975;DHT22;5028;50.974;4.968;2023-09-12T12:36:14;28.90;99.90
9975;DHT22;5028;50.974;4.968;2023-09-12T12:38:46;29.50;99.90
9975;DHT22;5028;50.974;4.968;2023-09-12T12:41:26;30.10;99.90
9975;DHT22;5028;50.974;4.968;2023-09-12T12:44:06;30.60;99.90
9975;DHT22;5028;50.974;4.968;2023-09-12T12:46:34;30.70;99.90
9975;DHT22;5028;50.974;4.968;2023-09-12T12:49:16;30.00;99.90
9975;DHT22;5028;50.974;4.968;2023-09-12T12:51:46;29.30;99.90
9975;DHT22;5028;50.974;4.968;2023-09-12T12:54:23;28.80;99.90
9975;DHT22;5028;50.974;4.968;2023-09-12T12:56:52;27.90;99.90
9975;DHT22;5028;50.974;4.968;2023-09-12T12:59:21;27.20;99.90
9975;DHT22;5028;50.974;4.968;2023-09-12T13:01:50;27.10;99.90
9975;DHT22;5028;50.974;4.968;2023-09-12T13:04:19;27.20;99.90
9975;DHT22;5028;50.974;4.968;2023-09-12T13:06:49;26.80;99.90
9975;DHT22;5028;50.974;4.968;2023-09-12T13:09:18;26.70;99.90
9975;DHT22;5028;50.974;4.968;2023-09-12T13:11:47;26.80;99.90
9975;DHT22;5028;50.974;4.968;2023-09-12T13:14:16;27.20;99.90
9975;DHT22;5028;50.974;4.968;2023-09-12T13:16:46;27.20;99.90
9975;DHT22;5028;50.974;4.968;2023-09-12T13:19:15;27.50;99.90
9975;DHT22;5028;50.974;4.968;2023-09-12T13:21:44;27.70;99.90
9975;DHT22;5028;50.974;4.968;2023-09-12T13:24:14;27.90;99.90
9975;DHT22;5028;50.974;4.968;2023-09-12T13:26:43;27.90;99.90
9975;DHT22;5028;50.974;4.968;2023-09-12T13:29:12;27.60;99.90
9975;DHT22;5028;50.974;4.968;2023-09-12T13:31:41;27.10;99.90
9975;DHT22;5028;50.974;4.968;2023-09-12T13:34:15;26.70;99.90
9975;DHT22;5028;50.974;4.968;2023-09-12T13:36:50;26.80;99.90
9975;DHT22;5028;50.974;4.968;2023-09-12T13:39:39;26.80;99.90
9975;DHT22;5028;50.974;4.968;2023-09-12T13:42:10;27.10;99.90
9975;DHT22;5028;50.974;4.968;2023-09-12T13:44:41;27.10;99.90
9975;DHT22;5028;50.974;4.968;2023-09-12T13:47:12;27.20;99.90
9975;DHT22;5028;50.974;4.968;2023-09-12T13:49:41;26.80;99.90
9975;DHT22;5028;50.974;4.968;2023-09-12T13:52:09;26.70;99.90
9975;DHT22;5028;50.974;4.968;2023-09-12T13:54:40;26.80;99.90
9975;DHT22;5028;50.974;4.968;2023-09-12T13:57:09;27.20;99.90
9975;DHT22;5028;50.974;4.968;2023-09-12T13:59:37;27.40;99.90
9975;DHT22;5028;50.974;4.968;2023-09-12T14:02:12;27.60;99.90
9975;DHT22;5028;50.974;4.968;2023-09-12T14:04:43;27.70;99.90
9975;DHT22;5028;50.974;4.968;2023-09-12T14:07:14;27.70;99.90
9975;DHT22;5028;50.974;4.968;2023-09-12T14:09:44;27.40;99.90
9975;DHT22;5028;50.974;4.968;2023-09-12T14:12:13;27.30;99.90
9975;DHT22;5028;50.974;4.968;2023-09-12T14:14:53;27.30;99.90
9975;DHT22;5028;50.974;4.968;2023-09-12T14:17:34;27.20;99.90
9975;DHT22;5028;50.974;4.968;2023-09-12T14:20:10;27.30;99.90
9975;DHT22;5028;50.974;4.968;2023-09-12T14:22:42;27.20;99.90
9975;DHT22;5028;50.974;4.968;2023-09-12T14:25:13;26.60;99.90
9975;DHT22;5028;50.974;4.968;2023-09-12T14:27:43;25.90;99.90
9975;DHT22;5028;50.974;4.968;2023-09-12T14:30:12;25.70;99.90
9975;DHT22;5028;50.974;4.968;2023-09-12T14:32:41;25.70;99.90
9975;DHT22;5028;50.974;4.968;2023-09-12T14:35:09;25.60;99.90
9975;DHT22;5028;50.974;4.968;2023-09-12T14:37:38;25.70;99.90
9975;DHT22;5028;50.974;4.968;2023-09-12T14:40:10;25.70;99.90
9975;DHT22;5028;50.974;4.968;2023-09-12T14:42:42;25.70;99.90
9975;DHT22;5028;50.974;4.968;2023-09-12T14:45:11;25.60;99.90
9975;DHT22;5028;50.974;4.968;2023-09-12T14:47:39;25.40;99.90
9975;DHT22;5028;50.974;4.968;2023-09-12T14:50:09;25.40;99.90
9975;DHT22;5028;50.974;4.968;2023-09-12T14:52:37;25.20;99.90
9975;DHT22;5028;50.974;4.968;2023-09-12T14:55:07;25.00;99.90
9975;DHT22;5028;50.974;4.968;2023-09-12T14:57:35;24.90;99.90
9975;DHT22;5028;50.974;4.968;2023-09-12T15:00:07;24.70;99.90
9975;DHT22;5028;50.974;4.968;2023-09-12T15:02:37;24.70;99.90
9975;DHT22;5028;50.974;4.968;2023-09-12T15:05:06;24.70;99.90
9975;DHT22;5028;50.974;4.968;2023-09-12T15:07:35;24.50;99.90
9975;DHT22;5028;50.974;4.968;2023-09-12T15:10:05;24.20;99.90
9975;DHT22;5028;50.974;4.968;2023-09-12T15:12:34;23.90;99.90
9975;DHT22;5028;50.974;4.968;2023-09-12T15:15:03;23.80;99.90
9975;DHT22;5028;50.974;4.968;2023-09-12T15:17:34;23.40;99.90
9975;DHT22;5028;50.974;4.968;2023-09-12T15:20:02;23.00;99.90
9975;DHT22;5028;50.974;4.968;2023-09-12T15:22:32;22.90;99.90
9975;DHT22;5028;50.974;4.968;2023-09-12T15:25:02;22.90;99.90
9975;DHT22;5028;50.974;4.968;2023-09-12T15:27:31;22.90;99.90
9975;DHT22;5028;50.974;4.968;2023-09-12T15:30:05;22.90;99.90
9975;DHT22;5028;50.974;4.968;2023-09-12T15:32:36;22.90;99.90
9975;DHT22;5028;50.974;4.968;2023-09-12T15:35:05;22.80;99.90
9975;DHT22;5028;50.974;4.968;2023-09-12T15:37:35;22.90;99.90
9975;DHT22;5028;50.974;4.968;2023-09-12T15:40:05;22.90;99.90
9975;DHT22;5028;50.974;4.968;2023-09-12T15:42:33;23.10;99.90
9975;DHT22;5028;50.974;4.968;2023-09-12T15:45:05;23.30;99.90
9975;DHT22;5028;50.974;4.968;2023-09-12T15:47:37;23.40;99.90
9975;DHT22;5028;50.974;4.968;2023-09-12T15:50:07;23.50;99.90
9975;DHT22;5028;50.974;4.968;2023-09-12T15:52:35;23.50;99.90
9975;DHT22;5028;50.974;4.968;2023-09-12T15:55:06;23.60;99.90
9975;DHT22;5028;50.974;4.968;2023-09-12T15:57:35;23.60;99.90
9975;DHT22;5028;50.974;4.968;2023-09-12T16:00:05;23.50;99.90
9975;DHT22;5028;50.974;4.968;2023-09-12T16:02:39;23.60;99.90
9975;DHT22;5028;50.974;4.968;2023-09-12T16:05:08;23.50;99.90
9975;DHT22;5028;50.974;4.968;2023-09-12T16:07:37;23.50;99.90
9975;DHT22;5028;50.974;4.968;2023-09-12T16:10:06;23.50;99.90
9975;DHT22;5028;50.974;4.968;2023-09-12T16:12:36;23.50;99.90
9975;DHT22;5028;50.974;4.968;2023-09-12T16:15:05;23.50;99.90
9975;DHT22;5028;50.974;4.968;2023-09-12T16:17:34;23.50;99.90
9975;DHT22;5028;50.974;4.968;2023-09-12T16:20:07;23.40;99.90